Time;durP1;ratioP1;P1;durP2;ratioP2;P2;SDS_P1;SDS_P2;PMS_P1;PMS_P2;Temp;Humidity;BMP_temperature;BMP_pressure;BME280_temperature;BME280_humidity;BME280_pressure;Samples;Min_cycle;Max_cycle;Signal;HPM_P1;HPM_P2
2020/05/18 00:00:54;;;;;;;2.25;2.05;;;;;;;18.59;42.63;101259.28;;;;-59
2020/05/18 00:03:53;;;;;;;2.34;2.10;;;;;;;18.59;42.62;101257.96;;;;-59
2020/05/18 00:10:00;;;;;;;2.24;2.04;;;;;;;18.58;42.65;101258.05;;;;-53
2020/05/18 00:12:53;;;;;;;2.30;2.10;;;;;;;18.58;42.64;101261.35;;;;-53
2020/05/18 00:15:53;;;;;;;2.40;2.20;;;;;;;18.58;42.65;101263.02;;;;-53
2020/05/18 00:18:53;;;;;;;2.30;2.10;;;;;;;18.56;42.62;101262.95;;;;-53
2020/05/18 00:21:53;;;;;;;2.45;2.06;;;;;;;18.57;42.69;101263.23;;;;-53
2020/05/18 00:24:57;;;;;;;2.35;2.03;;;;;;;18.56;42.61;101260.09;;;;-53
2020/05/18 00:27:53;;;;;;;2.38;2.18;;;;;;;18.56;42.66;101257.75;;;;-55
2020/05/18 00:30:53;;;;;;;2.45;2.25;;;;;;;18.55;42.64;101258.14;;;;-56
2020/05/18 00:33:53;;;;;;;2.18;1.98;;;;;;;18.54;42.65;101256.91;;;;-59
2020/05/18 00:36:53;;;;;;;2.42;2.22;;;;;;;18.54;42.66;101261.16;;;;-59
2020/05/18 00:39:53;;;;;;;2.27;2.07;;;;;;;18.54;42.65;101256.20;;;;-59
2020/05/18 00:42:53;;;;;;;2.37;2.17;;;;;;;18.53;42.67;101259.74;;;;-58
2020/05/18 00:45:53;;;;;;;2.24;2.04;;;;;;;18.53;42.66;101264.21;;;;-58
2020/05/18 00:49:04;;;;;;;2.28;2.08;;;;;;;18.53;42.68;101264.59;;;;-55
2020/05/18 00:51:54;;;;;;;1.99;1.89;;;;;;;18.52;42.67;101260.59;;;;-55
2020/05/18 00:54:53;;;;;;;2.24;2.05;;;;;;;18.52;42.70;101260.02;;;;-56
2020/05/18 00:57:53;;;;;;;2.31;2.11;;;;;;;18.52;42.67;101264.70;;;;-55
2020/05/18 01:00:54;;;;;;;2.42;2.22;;;;;;;18.51;42.68;101269.78;;;;-56
2020/05/18 01:03:53;;;;;;;2.30;2.10;;;;;;;18.50;42.69;101265.41;;;;-56
2020/05/18 01:06:53;;;;;;;2.14;2.01;;;;;;;18.50;42.68;101268.33;;;;-56
2020/05/18 01:09:53;;;;;;;2.40;2.20;;;;;;;18.49;42.66;101267.54;;;;-59
2020/05/18 01:12:53;;;;;;;2.12;2.00;;;;;;;18.49;42.70;101268.44;;;;-56
2020/05/18 01:15:54;;;;;;;2.43;2.23;;;;;;;18.49;42.66;101268.27;;;;-56
2020/05/18 01:18:53;;;;;;;2.29;2.09;;;;;;;18.48;42.67;101271.27;;;;-56
2020/05/18 01:21:53;;;;;;;2.41;2.21;;;;;;;18.48;42.72;101271.27;;;;-56
2020/05/18 01:24:53;;;;;;;3.26;2.19;;;;;;;18.48;42.68;101265.56;;;;-58
2020/05/18 01:28:03;;;;;;;2.31;2.11;;;;;;;18.47;42.69;101264.91;;;;-55
2020/05/18 01:31:16;;;;;;;2.40;2.20;;;;;;;18.47;42.69;101264.33;;;;-59
2020/05/18 01:33:53;;;;;;;2.32;2.12;;;;;;;18.47;42.68;101261.55;;;;-56
2020/05/18 01:36:53;;;;;;;2.70;2.01;;;;;;;18.46;42.71;101260.16;;;;-58
2020/05/18 01:40:00;;;;;;;2.43;2.23;;;;;;;18.46;42.71;101261.59;;;;-58
2020/05/18 01:42:57;;;;;;;2.37;2.17;;;;;;;18.45;42.68;101263.72;;;;-57
2020/05/18 01:46:16;;;;;;;2.34;2.06;;;;;;;18.44;42.71;101264.83;;;;-57
2020/05/18 01:55:26;;;;;;;2.40;2.20;;;;;;;18.45;42.70;101266.11;;;;-55
2020/05/18 02:01:15;;;;;;;2.38;2.18;;;;;;;18.43;42.71;101265.16;;;;-58
2020/05/18 02:04:21;;;;;;;2.53;2.20;;;;;;;18.44;42.69;101265.71;;;;-54
2020/05/18 02:17:24;;;;;;;2.39;2.19;;;;;;;18.41;42.71;101252.42;;;;-56
2020/05/18 02:20:40;;;;;;;2.25;2.05;;;;;;;18.41;42.70;101253.76;;;;-56
2020/05/18 02:34:59;;;;;;;2.29;2.05;;;;;;;18.40;42.70;101247.91;;;;-55
2020/05/18 02:37:53;;;;;;;2.30;2.10;;;;;;;18.40;42.74;101246.41;;;;-54
2020/05/18 02:40:53;;;;;;;2.63;2.23;;;;;;;18.39;42.72;101244.11;;;;-53
2020/05/18 02:43:53;;;;;;;2.47;2.27;;;;;;;18.38;42.66;101246.83;;;;-54
2020/05/18 02:57:07;;;;;;;2.43;2.23;;;;;;;18.37;42.69;101243.83;;;;-54
2020/05/18 02:59:56;;;;;;;2.31;2.11;;;;;;;18.37;42.72;101244.48;;;;-53
2020/05/18 03:06:55;;;;;;;2.93;2.39;;;;;;;18.36;42.73;101253.12;;;;-54
2020/05/18 03:14:35;;;;;;;2.43;2.23;;;;;;;18.35;42.72;101244.36;;;;-54
2020/05/18 03:24:03;;;;;;;2.35;2.15;;;;;;;18.34;42.74;101250.55;;;;-53
2020/05/18 03:31:06;;;;;;;2.43;2.23;;;;;;;18.33;42.72;101249.26;;;;-53
2020/05/18 03:33:58;;;;;;;2.61;2.11;;;;;;;18.33;42.73;101257.00;;;;-53
2020/05/18 03:37:41;;;;;;;2.43;2.23;;;;;;;18.33;42.71;101259.02;;;;-52
2020/05/18 03:41:45;;;;;;;2.51;2.31;;;;;;;18.32;42.70;101260.84;;;;-52
2020/05/18 04:08:19;;;;;;;2.40;2.20;;;;;;;18.30;42.72;101279.05;;;;-54
2020/05/18 04:10:53;;;;;;;2.20;2.00;;;;;;;18.31;42.71;101278.39;;;;-53
2020/05/18 04:13:53;;;;;;;2.49;2.29;;;;;;;18.30;42.73;101278.44;;;;-54
2020/05/18 04:24:42;;;;;;;2.44;2.24;;;;;;;18.30;42.67;101281.17;;;;-54
2020/05/18 04:31:03;;;;;;;2.40;2.20;;;;;;;18.30;42.67;101277.89;;;;-53
2020/05/18 04:36:53;;;;;;;2.40;2.10;;;;;;;18.29;42.67;101285.17;;;;-54
2020/05/18 04:39:53;;;;;;;2.41;2.21;;;;;;;18.30;42.67;101285.73;;;;-53
2020/05/18 04:42:53;;;;;;;2.41;2.21;;;;;;;18.30;42.64;101289.87;;;;-53
2020/05/18 04:45:53;;;;;;;2.52;2.27;;;;;;;18.30;42.67;101289.59;;;;-54
2020/05/18 04:48:59;;;;;;;2.38;2.18;;;;;;;18.30;42.64;101289.64;;;;-54
2020/05/18 04:51:54;;;;;;;2.27;2.10;;;;;;;18.29;42.64;101287.69;;;;-54
2020/05/18 04:54:59;;;;;;;2.51;2.31;;;;;;;18.30;42.64;101286.86;;;;-53
2020/05/18 05:01:19;;;;;;;2.31;2.11;;;;;;;18.30;42.65;101284.91;;;;-52
2020/05/18 05:07:50;;;;;;;2.41;2.21;;;;;;;18.29;42.66;101286.17;;;;-53
2020/05/18 05:10:59;;;;;;;2.35;2.15;;;;;;;18.30;42.60;101291.09;;;;-53
2020/05/18 05:19:34;;;;;;;2.34;2.14;;;;;;;18.29;42.66;101297.22;;;;-53
2020/05/18 05:23:14;;;;;;;2.47;2.27;;;;;;;18.29;42.64;101300.22;;;;-53
2020/05/18 05:26:30;;;;;;;2.48;2.28;;;;;;;18.30;42.66;101303.64;;;;-54
2020/05/18 05:34:16;;;;;;;2.16;1.98;;;;;;;18.29;42.63;101309.92;;;;-52
2020/05/18 05:36:53;;;;;;;2.40;2.20;;;;;;;18.29;42.60;101308.53;;;;-52
2020/05/18 05:39:53;;;;;;;2.23;2.10;;;;;;;18.29;42.62;101313.22;;;;-54
2020/05/18 05:42:53;;;;;;;2.34;2.14;;;;;;;18.29;42.64;101313.27;;;;-54
2020/05/18 05:45:53;;;;;;;2.34;2.14;;;;;;;18.30;42.66;101312.84;;;;-54
2020/05/18 05:48:53;;;;;;;2.47;2.27;;;;;;;18.30;42.62;101314.51;;;;-52
2020/05/18 06:00:53;;;;;;;2.37;2.17;;;;;;;18.30;42.58;101327.55;;;;-54
2020/05/18 06:03:54;;;;;;;2.39;2.19;;;;;;;18.30;42.64;101325.99;;;;-54
2020/05/18 06:06:53;;;;;;;2.34;2.13;;;;;;;18.30;42.62;101333.06;;;;-54
2020/05/18 06:09:53;;;;;;;2.49;2.29;;;;;;;18.30;42.64;101338.30;;;;-53
2020/05/18 06:12:56;;;;;;;2.26;2.07;;;;;;;18.29;42.64;101341.69;;;;-53
2020/05/18 06:15:53;;;;;;;2.27;2.06;;;;;;;18.30;42.59;101346.61;;;;-54
2020/05/18 06:18:53;;;;;;;2.09;1.93;;;;;;;18.29;42.60;101348.67;;;;-53
2020/05/18 06:21:53;;;;;;;2.30;2.10;;;;;;;18.30;42.60;101355.36;;;;-54
2020/05/18 06:24:53;;;;;;;2.29;2.09;;;;;;;18.29;42.60;101354.97;;;;-54
2020/05/18 06:27:53;;;;;;;2.21;2.01;;;;;;;18.30;42.61;101357.92;;;;-54
2020/05/18 06:30:53;;;;;;;2.20;2.00;;;;;;;18.30;42.60;101364.72;;;;-53
2020/05/18 06:33:53;;;;;;;2.29;2.09;;;;;;;18.30;42.61;101362.11;;;;-54
2020/05/18 06:36:53;;;;;;;2.33;2.13;;;;;;;18.30;42.61;101366.18;;;;-53
2020/05/18 06:39:53;;;;;;;2.27;2.07;;;;;;;18.30;42.62;101364.17;;;;-54
2020/05/18 06:42:53;;;;;;;2.33;2.13;;;;;;;18.30;42.62;101361.88;;;;-53
2020/05/18 06:45:55;;;;;;;2.28;2.09;;;;;;;18.30;42.61;101361.50;;;;-53
2020/05/18 06:48:53;;;;;;;2.27;2.07;;;;;;;18.30;42.60;101359.77;;;;-53
2020/05/18 06:51:53;;;;;;;2.27;2.07;;;;;;;18.30;42.59;101358.54;;;;-53
2020/05/18 06:54:53;;;;;;;2.17;2.02;;;;;;;18.30;42.61;101355.75;;;;-54
2020/05/18 06:57:53;;;;;;;2.10;2.00;;;;;;;18.30;42.56;101358.93;;;;-53
2020/05/18 07:00:53;;;;;;;2.11;2.00;;;;;;;18.30;42.58;101360.10;;;;-54
2020/05/18 07:03:53;;;;;;;2.41;2.21;;;;;;;18.29;42.60;101358.81;;;;-53
2020/05/18 07:06:53;;;;;;;3.05;2.18;;;;;;;18.30;42.60;101362.00;;;;-53
2020/05/18 07:09:53;;;;;;;2.30;2.10;;;;;;;18.30;42.59;101364.89;;;;-53
2020/05/18 07:12:53;;;;;;;2.20;2.00;;;;;;;18.30;42.58;101368.91;;;;-54
2020/05/18 07:15:53;;;;;;;2.55;2.35;;;;;;;18.30;42.59;101362.95;;;;-54
2020/05/18 07:18:53;;;;;;;2.51;2.28;;;;;;;18.32;42.79;101366.69;;;;-53
2020/05/18 07:21:53;;;;;;;3.93;2.24;;;;;;;18.34;42.82;101365.48;;;;-52
2020/05/18 07:24:53;;;;;;;2.69;2.33;;;;;;;18.36;42.77;101364.94;;;;-55
2020/05/18 07:27:53;;;;;;;2.19;1.99;;;;;;;18.40;42.86;101365.33;;;;-52
2020/05/18 07:30:53;;;;;;;2.28;2.03;;;;;;;18.44;42.91;101359.05;;;;-58
2020/05/18 07:33:59;;;;;;;4.37;2.22;;;;;;;18.51;43.03;101362.56;;;;-48
2020/05/18 07:36:57;;;;;;;2.30;2.10;;;;;;;18.54;42.72;101355.16;;;;-57
2020/05/18 07:39:53;;;;;;;2.29;2.09;;;;;;;18.58;42.51;101357.59;;;;-50
2020/05/18 07:42:53;;;;;;;3.31;2.38;;;;;;;18.61;42.55;101358.47;;;;-58
2020/05/18 07:45:53;;;;;;;3.45;2.09;;;;;;;18.64;42.60;101357.69;;;;-58
2020/05/18 07:48:53;;;;;;;3.55;2.30;;;;;;;18.69;42.82;101358.69;;;;-51
2020/05/18 07:51:53;;;;;;;3.46;2.19;;;;;;;18.72;42.82;101358.64;;;;-50
2020/05/18 07:54:53;;;;;;;3.48;2.31;;;;;;;18.76;42.67;101358.72;;;;-58
2020/05/18 07:57:53;;;;;;;3.63;2.37;;;;;;;18.80;42.39;101358.92;;;;-58
2020/05/18 08:00:53;;;;;;;2.35;2.13;;;;;;;18.82;42.43;101352.08;;;;-59
2020/05/18 08:03:53;;;;;;;2.30;2.10;;;;;;;18.84;42.33;101350.62;;;;-59
2020/05/18 08:06:53;;;;;;;4.34;2.20;;;;;;;18.87;42.31;101347.36;;;;-58
2020/05/18 08:09:53;;;;;;;3.59;2.21;;;;;;;18.90;42.26;101343.91;;;;-59
2020/05/18 08:12:53;;;;;;;6.97;2.24;;;;;;;18.95;42.73;101341.98;;;;-53
2020/05/18 08:15:53;;;;;;;4.89;2.42;;;;;;;18.99;42.53;101336.70;;;;-52
2020/05/18 08:18:53;;;;;;;2.68;2.27;;;;;;;19.03;42.71;101337.89;;;;-51
2020/05/18 08:21:53;;;;;;;3.08;2.42;;;;;;;19.06;42.77;101337.81;;;;-48
2020/05/18 08:24:53;;;;;;;4.26;2.13;;;;;;;19.08;42.79;101338.77;;;;-50
2020/05/18 08:27:53;;;;;;;2.35;2.10;;;;;;;19.12;43.10;101340.91;;;;-54
2020/05/18 08:30:53;;;;;;;7.23;2.20;;;;;;;19.13;42.98;101341.05;;;;-53
2020/05/18 08:33:53;;;;;;;4.41;2.26;;;;;;;19.16;42.82;101347.88;;;;-56
2020/05/18 08:36:53;;;;;;;2.99;2.19;;;;;;;19.17;42.96;101345.14;;;;-56
2020/05/18 08:39:53;;;;;;;3.59;2.01;;;;;;;19.20;42.92;101344.44;;;;-55
2020/05/18 08:42:53;;;;;;;2.71;2.16;;;;;;;19.21;43.00;101344.84;;;;-55
2020/05/18 08:45:53;;;;;;;2.60;2.17;;;;;;;19.23;42.99;101348.97;;;;-54
2020/05/18 08:48:53;;;;;;;2.24;2.04;;;;;;;19.24;42.65;101343.18;;;;-56
2020/05/18 08:51:53;;;;;;;2.55;1.99;;;;;;;19.26;42.64;101337.94;;;;-52
2020/05/18 08:54:53;;;;;;;4.27;1.91;;;;;;;19.27;42.49;101340.83;;;;-53
2020/05/18 08:57:53;;;;;;;4.39;1.99;;;;;;;19.28;42.97;101340.57;;;;-56
2020/05/18 09:00:53;;;;;;;3.91;2.25;;;;;;;19.29;42.96;101345.98;;;;-53
2020/05/18 09:03:53;;;;;;;7.41;2.63;;;;;;;19.34;42.41;101348.80;;;;-51
2020/05/18 09:06:53;;;;;;;4.63;2.07;;;;;;;19.37;42.10;101342.38;;;;-54
2020/05/18 09:09:53;;;;;;;13.17;2.79;;;;;;;19.45;42.43;101341.98;;;;-53
2020/05/18 09:12:53;;;;;;;13.49;2.77;;;;;;;19.48;42.75;101339.13;;;;-58
2020/05/18 09:15:53;;;;;;;10.58;2.53;;;;;;;19.50;42.67;101334.06;;;;-53
2020/05/18 09:18:53;;;;;;;7.29;2.50;;;;;;;19.52;42.81;101330.71;;;;-52
2020/05/18 09:21:53;;;;;;;3.44;2.30;;;;;;;19.53;42.47;101327.42;;;;-60
2020/05/18 09:24:53;;;;;;;7.17;2.53;;;;;;;19.53;42.43;101326.75;;;;-58
2020/05/18 09:27:53;;;;;;;3.74;2.42;;;;;;;19.52;42.35;101330.16;;;;-57
2020/05/18 09:30:53;;;;;;;3.85;2.28;;;;;;;19.52;42.36;101326.69;;;;-57
2020/05/18 09:33:53;;;;;;;5.60;2.33;;;;;;;19.51;42.45;101321.88;;;;-54
2020/05/18 09:36:53;;;;;;;5.44;2.47;;;;;;;19.53;42.78;101325.18;;;;-61
2020/05/18 09:39:53;;;;;;;4.97;2.16;;;;;;;19.51;42.36;101319.72;;;;-62
2020/05/18 09:42:53;;;;;;;4.45;2.29;;;;;;;19.51;42.31;101321.94;;;;-59
2020/05/18 09:45:53;;;;;;;5.18;2.53;;;;;;;19.49;42.65;101323.16;;;;-52
2020/05/18 09:48:53;;;;;;;4.80;2.30;;;;;;;19.46;42.40;101313.83;;;;-55
2020/05/18 09:51:53;;;;;;;2.41;2.13;;;;;;;19.44;42.32;101313.11;;;;-54
2020/05/18 09:54:53;;;;;;;3.02;2.28;;;;;;;19.44;42.32;101316.46;;;;-53
2020/05/18 09:57:53;;;;;;;3.86;2.11;;;;;;;19.43;42.37;101312.64;;;;-53
2020/05/18 10:00:53;;;;;;;8.84;2.57;;;;;;;19.45;42.50;101308.80;;;;-54
2020/05/18 10:03:54;;;;;;;9.18;2.34;;;;;;;19.46;42.47;101305.85;;;;-56
2020/05/18 10:06:53;;;;;;;7.57;2.47;;;;;;;19.46;42.53;101308.63;;;;-53
2020/05/18 10:09:53;;;;;;;5.29;2.31;;;;;;;19.46;42.62;101310.03;;;;-53
2020/05/18 10:12:53;;;;;;;5.45;2.31;;;;;;;19.45;42.60;101306.62;;;;-53
2020/05/18 10:15:53;;;;;;;2.86;2.29;;;;;;;19.45;42.63;101307.52;;;;-54
2020/05/18 10:18:53;;;;;;;4.61;2.29;;;;;;;19.45;42.61;101311.48;;;;-57
2020/05/18 10:21:53;;;;;;;5.89;2.19;;;;;;;19.46;42.44;101308.08;;;;-60
2020/05/18 10:24:53;;;;;;;3.91;2.21;;;;;;;19.45;42.43;101308.53;;;;-60
2020/05/18 10:27:53;;;;;;;4.08;2.24;;;;;;;19.43;42.46;101304.87;;;;-59
2020/05/18 10:30:53;;;;;;;3.55;2.11;;;;;;;19.41;42.42;101302.70;;;;-60
2020/05/18 10:33:53;;;;;;;3.58;2.19;;;;;;;19.40;42.36;101294.98;;;;-60
2020/05/18 10:36:53;;;;;;;3.66;1.97;;;;;;;19.39;42.41;101287.57;;;;-59
2020/05/18 10:39:52;;;;;;;3.57;2.13;;;;;;;19.38;42.34;101284.16;;;;-59
2020/05/18 10:43:04;;;;;;;3.16;2.12;;;;;;;19.36;42.35;101285.70;;;;-61
2020/05/18 10:45:53;;;;;;;3.59;2.05;;;;;;;19.36;42.33;101284.89;;;;-59
2020/05/18 10:48:53;;;;;;;2.18;1.95;;;;;;;19.35;42.34;101280.52;;;;-60
2020/05/18 10:51:53;;;;;;;3.04;2.18;;;;;;;19.34;42.27;101278.89;;;;-60
2020/05/18 10:54:53;;;;;;;3.64;2.20;;;;;;;19.34;42.28;101276.11;;;;-60
2020/05/18 10:57:53;;;;;;;5.11;2.04;;;;;;;19.32;42.27;101270.73;;;;-56
2020/05/18 11:00:53;;;;;;;3.04;2.11;;;;;;;19.32;42.27;101266.59;;;;-55
2020/05/18 11:03:53;;;;;;;3.01;2.01;;;;;;;19.31;42.24;101261.02;;;;-56
2020/05/18 11:06:53;;;;;;;4.05;2.16;;;;;;;19.30;42.25;101266.16;;;;-56
2020/05/18 11:09:53;;;;;;;3.74;2.07;;;;;;;19.29;42.26;101264.59;;;;-56
2020/05/18 11:12:53;;;;;;;3.05;2.05;;;;;;;19.28;42.23;101265.14;;;;-56
2020/05/18 11:15:53;;;;;;;4.21;2.01;;;;;;;19.28;42.25;101260.17;;;;-56
2020/05/18 11:18:53;;;;;;;3.15;1.90;;;;;;;19.26;42.24;101248.84;;;;-56
2020/05/18 11:21:53;;;;;;;2.76;2.07;;;;;;;19.26;42.26;101253.63;;;;-56
2020/05/18 11:24:53;;;;;;;2.15;1.95;;;;;;;19.25;42.23;101242.24;;;;-56
2020/05/18 11:27:53;;;;;;;2.89;1.90;;;;;;;19.24;42.25;101244.20;;;;-56
2020/05/18 11:30:53;;;;;;;3.46;2.08;;;;;;;19.23;42.29;101246.14;;;;-56
2020/05/18 11:33:53;;;;;;;2.85;2.07;;;;;;;19.22;42.28;101240.58;;;;-56
2020/05/18 11:36:53;;;;;;;2.59;2.15;;;;;;;19.21;42.25;101235.59;;;;-56
2020/05/18 11:39:53;;;;;;;2.34;1.91;;;;;;;19.20;42.29;101231.86;;;;-56
2020/05/18 11:42:52;;;;;;;2.31;2.01;;;;;;;19.20;42.32;101231.86;;;;-56
2020/05/18 11:45:54;;;;;;;2.84;2.12;;;;;;;19.19;42.31;101227.95;;;;-60
2020/05/18 11:48:53;;;;;;;1.98;1.79;;;;;;;19.19;42.28;101226.93;;;;-60
2020/05/18 11:51:53;;;;;;;3.29;2.07;;;;;;;19.18;42.29;101227.65;;;;-59
2020/05/18 11:54:53;;;;;;;2.83;2.00;;;;;;;19.17;42.33;101228.09;;;;-60
2020/05/18 11:57:53;;;;;;;3.67;1.98;;;;;;;19.18;42.26;101225.99;;;;-59
2020/05/18 12:00:55;;;;;;;3.22;1.99;;;;;;;19.15;42.31;101214.41;;;;-58
2020/05/18 12:03:53;;;;;;;2.39;1.99;;;;;;;19.15;42.32;101216.61;;;;-60
2020/05/18 12:06:53;;;;;;;2.63;1.80;;;;;;;19.15;42.33;101213.47;;;;-60
2020/05/18 12:09:54;;;;;;;2.65;1.97;;;;;;;19.13;42.31;101204.42;;;;-60
2020/05/18 12:12:53;;;;;;;3.00;1.99;;;;;;;19.13;42.41;101208.25;;;;-58
2020/05/18 12:16:08;;;;;;;3.63;1.92;;;;;;;19.15;42.71;101204.99;;;;-52
2020/05/18 12:18:54;;;;;;;2.61;1.93;;;;;;;19.14;42.75;101200.19;;;;-54
2020/05/18 12:28:41;;;;;;;2.02;1.81;;;;;;;19.17;43.10;101199.30;;;;-55
2020/05/18 12:46:25;;;;;;;3.73;1.99;;;;;;;19.21;43.32;101182.56;;;;-53
2020/05/18 13:03:22;;;;;;;3.35;1.97;;;;;;;19.23;43.32;101162.70;;;;-60
2020/05/18 13:09:26;;;;;;;3.03;2.15;;;;;;;19.25;43.22;101143.78;;;;-54
2020/05/18 13:18:24;;;;;;;2.26;1.93;;;;;;;19.25;43.42;101141.55;;;;-53
2020/05/18 13:20:57;;;;;;;2.91;1.89;;;;;;;19.26;43.39;101140.42;;;;-52
2020/05/18 13:32:17;;;;;;;2.46;1.98;;;;;;;19.26;43.41;101135.73;;;;-51
2020/05/18 13:45:21;;;;;;;2.56;1.95;;;;;;;19.25;43.31;101125.35;;;;-59
2020/05/18 13:48:28;;;;;;;2.34;1.81;;;;;;;19.24;43.36;101118.59;;;;-59
2020/05/18 14:19:55;;;;;;;2.45;1.81;;;;;;;19.21;43.30;101090.41;;;;-56
2020/05/18 14:22:14;;;;;;;4.10;2.09;;;;;;;19.22;43.26;101087.50;;;;-57
2020/05/18 14:25:17;;;;;;;3.84;1.92;;;;;;;19.22;43.60;101084.99;;;;-54
2020/05/18 14:31:30;;;;;;;2.94;1.84;;;;;;;19.25;43.37;101083.09;;;;-52
2020/05/18 14:34:17;;;;;;;4.45;1.99;;;;;;;19.25;43.52;101080.98;;;;-52
2020/05/18 14:37:19;;;;;;;5.39;1.89;;;;;;;19.25;43.50;101076.46;;;;-54
2020/05/18 14:40:27;;;;;;;2.97;1.93;;;;;;;19.24;43.51;101074.06;;;;-55
2020/05/18 14:46:29;;;;;;;5.17;2.25;;;;;;;19.26;43.46;101067.73;;;;-61
2020/05/18 14:49:35;;;;;;;3.41;1.77;;;;;;;19.26;43.48;101065.29;;;;-55
2020/05/18 14:55:30;;;;;;;3.25;1.93;;;;;;;19.25;43.65;101061.66;;;;-65
2020/05/18 15:40:33;;;;;;;3.56;1.81;;;;;;;19.24;43.41;101055.73;;;;-59
2020/05/18 15:46:38;;;;;;;3.27;1.90;;;;;;;19.24;43.43;101050.22;;;;-58
2020/05/18 15:49:39;;;;;;;4.39;1.71;;;;;;;19.24;43.55;101051.72;;;;-56
2020/05/18 15:52:52;;;;;;;3.29;1.81;;;;;;;19.24;43.49;101052.06;;;;-57
2020/05/18 15:55:34;;;;;;;3.45;1.70;;;;;;;19.24;43.57;101048.94;;;;-59
2020/05/18 16:15:28;;;;;;;2.99;1.65;;;;;;;19.28;43.56;101033.24;;;;-56
2020/05/18 16:18:24;;;;;;;5.23;1.80;;;;;;;19.28;43.54;101029.57;;;;-58
2020/05/18 16:21:36;;;;;;;2.54;1.73;;;;;;;19.29;43.48;101032.37;;;;-54
2020/05/18 16:24:21;;;;;;;4.82;1.77;;;;;;;19.28;43.44;101022.09;;;;-54
2020/05/18 16:27:32;;;;;;;4.94;1.72;;;;;;;19.27;43.59;101021.48;;;;-54
2020/05/18 16:30:30;;;;;;;4.34;1.85;;;;;;;19.27;43.51;101024.33;;;;-53
2020/05/18 16:36:22;;;;;;;7.98;1.81;;;;;;;19.27;43.59;101014.78;;;;-56
2020/05/18 16:43:19;;;;;;;2.39;1.69;;;;;;;19.28;43.54;101015.34;;;;-58
2020/05/18 16:46:38;;;;;;;3.39;1.72;;;;;;;19.29;43.55;101016.89;;;;-57
2020/05/18 16:49:21;;;;;;;2.49;1.76;;;;;;;19.29;43.63;101013.94;;;;-58
2020/05/18 16:52:59;;;;;;;3.57;1.85;;;;;;;19.29;43.72;101012.87;;;;-53
2020/05/18 16:55:28;;;;;;;5.09;1.73;;;;;;;19.30;43.51;101010.41;;;;-56
2020/05/18 17:01:16;;;;;;;4.77;1.73;;;;;;;19.27;43.45;101007.69;;;;-56
2020/05/18 17:04:12;;;;;;;6.45;1.84;;;;;;;19.26;43.48;101010.37;;;;-56
2020/05/18 17:08:00;;;;;;;3.78;1.80;;;;;;;19.25;43.45;101014.00;;;;-57
2020/05/18 17:11:25;;;;;;;2.31;1.67;;;;;;;19.24;43.50;101018.47;;;;-56
2020/05/18 17:27:29;;;;;;;2.68;1.71;;;;;;;19.21;43.36;101008.91;;;;-56
2020/05/18 17:49:54;;;;;;;2.72;1.73;;;;;;;19.17;43.21;101007.80;;;;-56
2020/05/18 18:17:39;;;;;;;1.85;1.66;;;;;;;19.13;43.12;101004.27;;;;-57
2020/05/18 18:20:54;;;;;;;2.27;1.69;;;;;;;19.13;43.14;101008.00;;;;-56
2020/05/18 18:26:31;;;;;;;1.63;1.50;;;;;;;19.14;43.13;101013.78;;;;-56
2020/05/18 18:29:25;;;;;;;2.30;1.57;;;;;;;19.12;43.09;101010.51;;;;-56
2020/05/18 18:37:18;;;;;;;2.72;1.70;;;;;;;19.11;43.11;101009.72;;;;-57
2020/05/18 18:40:14;;;;;;;3.11;1.69;;;;;;;19.11;43.15;101012.23;;;;-58
2020/05/18 18:43:39;;;;;;;2.20;1.70;;;;;;;19.10;43.17;101014.86;;;;-58
2020/05/18 18:50:37;;;;;;;1.98;1.75;;;;;;;19.09;43.08;101013.59;;;;-58
2020/05/18 18:53:21;;;;;;;2.31;1.78;;;;;;;19.10;43.10;101013.81;;;;-58
2020/05/18 18:56:15;;;;;;;1.80;1.70;;;;;;;19.09;43.12;101015.03;;;;-58
2020/05/18 18:59:26;;;;;;;1.95;1.75;;;;;;;19.08;43.09;101015.20;;;;-57
2020/05/18 19:02:24;;;;;;;5.47;1.70;;;;;;;19.09;43.31;101012.17;;;;-48
2020/05/18 19:16:26;;;;;;;2.75;1.99;;;;;;;19.15;43.52;101023.03;;;;-49
2020/05/18 19:32:19;;;;;;;3.60;1.91;;;;;;;19.11;43.50;101026.02;;;;-60
2020/05/18 19:35:24;;;;;;;3.85;2.08;;;;;;;19.09;43.64;101029.59;;;;-60
2020/05/18 20:08:31;;;;;;;3.05;2.13;;;;;;;19.02;43.44;101046.28;;;;-59
2020/05/18 20:11:33;;;;;;;4.29;1.94;;;;;;;19.02;43.35;101048.23;;;;-59
2020/05/18 20:17:23;;;;;;;3.81;1.80;;;;;;;19.01;43.41;101045.05;;;;-59
2020/05/18 20:20:25;;;;;;;2.20;1.90;;;;;;;19.00;43.38;101044.48;;;;-59
2020/05/18 20:23:30;;;;;;;2.31;2.01;;;;;;;19.00;43.39;101049.17;;;;-59
2020/05/18 20:31:15;;;;;;;2.63;1.87;;;;;;;18.97;43.42;101044.44;;;;-58
2020/05/18 20:34:23;;;;;;;3.03;1.79;;;;;;;18.98;43.38;101051.84;;;;-60
2020/05/18 20:40:54;;;;;;;1.93;1.69;;;;;;;18.97;43.38;101052.20;;;;-59
2020/05/18 20:46:28;;;;;;;4.26;1.83;;;;;;;18.96;43.38;101049.80;;;;-60
2020/05/18 20:53:35;;;;;;;2.41;1.75;;;;;;;18.95;43.35;101049.11;;;;-58
2020/05/18 20:56:19;;;;;;;2.17;1.76;;;;;;;18.94;43.44;101045.44;;;;-59
2020/05/18 20:59:12;;;;;;;2.26;1.81;;;;;;;18.95;43.36;101051.74;;;;-58
2020/05/18 21:02:39;;;;;;;2.47;1.95;;;;;;;18.93;43.43;101048.73;;;;-59
2020/05/18 21:34:36;;;;;;;2.43;1.90;;;;;;;18.89;43.42;101060.38;;;;-59
2020/05/18 21:37:13;;;;;;;1.82;1.72;;;;;;;18.89;43.38;101061.66;;;;-59
2020/05/18 21:40:44;;;;;;;2.48;1.91;;;;;;;18.88;43.42;101063.69;;;;-59
2020/05/18 21:52:27;;;;;;;2.25;1.72;;;;;;;18.87;43.47;101068.18;;;;-59
2020/05/18 21:55:21;;;;;;;2.27;1.90;;;;;;;18.86;43.42;101068.35;;;;-59
2020/05/18 21:58:12;;;;;;;1.80;1.70;;;;;;;18.86;43.49;101069.14;;;;-59
2020/05/18 22:01:13;;;;;;;2.13;1.87;;;;;;;18.86;43.42;101070.14;;;;-59
2020/05/18 22:04:15;;;;;;;1.81;1.70;;;;;;;18.86;43.44;101068.14;;;;-59
2020/05/18 22:07:28;;;;;;;1.94;1.80;;;;;;;18.85;43.51;101071.41;;;;-59
2020/05/18 22:10:47;;;;;;;2.16;1.81;;;;;;;18.85;43.50;101069.70;;;;-59
2020/05/18 22:13:36;;;;;;;2.02;1.85;;;;;;;18.84;43.45;101068.67;;;;-59
2020/05/18 22:16:15;;;;;;;2.37;1.80;;;;;;;18.84;43.44;101068.86;;;;-59
2020/05/18 22:19:12;;;;;;;1.95;1.76;;;;;;;18.84;43.45;101069.30;;;;-60
2020/05/18 22:22:12;;;;;;;3.74;1.85;;;;;;;18.84;43.54;101066.79;;;;-59
2020/05/18 22:25:12;;;;;;;2.35;1.83;;;;;;;18.83;43.51;101067.58;;;;-60
2020/05/18 22:28:12;;;;;;;2.03;1.81;;;;;;;18.82;43.44;101069.23;;;;-59
2020/05/18 22:31:20;;;;;;;2.16;1.75;;;;;;;18.82;43.55;101069.62;;;;-59
2020/05/18 22:34:47;;;;;;;2.39;1.95;;;;;;;18.82;43.54;101066.07;;;;-60
2020/05/18 22:45:24;;;;;;;1.95;1.77;;;;;;;18.81;43.52;101077.73;;;;-60
2020/05/18 22:48:12;;;;;;;2.01;1.72;;;;;;;18.81;43.53;101078.90;;;;-60
2020/05/18 22:51:12;;;;;;;2.23;1.80;;;;;;;18.80;43.50;101078.48;;;;-59
2020/05/18 22:54:21;;;;;;;2.06;1.78;;;;;;;18.80;43.49;101073.87;;;;-59
2020/05/18 22:57:42;;;;;;;2.08;1.75;;;;;;;18.80;43.53;101075.60;;;;-60
2020/05/18 23:00:23;;;;;;;1.92;1.80;;;;;;;18.80;43.51;101074.43;;;;-60
2020/05/18 23:03:18;;;;;;;2.08;1.79;;;;;;;18.79;43.52;101072.97;;;;-59
2020/05/18 23:14:14;;;;;;;2.03;1.81;;;;;;;18.77;43.50;101071.25;;;;-58
2020/05/18 23:25:23;;;;;;;1.87;1.73;;;;;;;18.76;43.60;101065.38;;;;-59
2020/05/18 23:28:33;;;;;;;1.94;1.71;;;;;;;18.77;43.61;101069.67;;;;-58
2020/05/18 23:31:13;;;;;;;2.13;1.84;;;;;;;18.76;43.58;101068.78;;;;-58
2020/05/18 23:34:12;;;;;;;2.10;1.89;;;;;;;18.76;43.56;101073.53;;;;-59
2020/05/18 23:37:13;;;;;;;2.05;1.88;;;;;;;18.76;43.54;101069.85;;;;-59
2020/05/18 23:40:16;;;;;;;2.91;1.89;;;;;;;18.75;43.54;101070.84;;;;-60
2020/05/18 23:43:59;;;;;;;2.17;1.97;;;;;;;18.75;43.57;101072.58;;;;-58
2020/05/18 23:46:20;;;;;;;2.07;1.87;;;;;;;18.75;43.57;101071.91;;;;-60
2020/05/18 23:49:12;;;;;;;2.33;1.95;;;;;;;18.74;43.59;101070.68;;;;-60
2020/05/18 23:52:12;;;;;;;2.10;1.90;;;;;;;18.74;43.59;101066.94;;;;-58
2020/05/18 23:55:21;;;;;;;2.66;1.92;;;;;;;18.74;43.59;101066.10;;;;-60
2020/05/18 23:58:12;;;;;;;2.49;2.01;;;;;;;18.74;43.57;101057.62;;;;-59
